sensor_id;sensor_type;location;lat;lon;timestamp;temperature;humidity
7378;DHT22;3730;50.856;12.776;2023-02-18T10:59:24;10.20;99.90
7378;DHT22;3730;50.856;12.776;2023-02-18T11:02:02;10.40;99.90
7378;DHT22;3730;50.856;12.776;2023-02-18T11:04:41;10.30;99.90
7378;DHT22;3730;50.856;12.776;2023-02-18T11:07:13;10.70;99.90
7378;DHT22;3730;50.856;12.776;2023-02-18T11:09:45;10.50;99.90
7378;DHT22;3730;50.856;12.776;2023-02-18T11:17:45;10.30;99.90
7378;DHT22;3730;50.856;12.776;2023-02-18T11:20:27;10.20;99.90
7378;DHT22;3730;50.856;12.776;2023-02-18T11:22:59;10.60;99.90
7378;DHT22;3730;50.856;12.776;2023-02-18T11:25:40;9.90;99.90
7378;DHT22;3730;50.856;12.776;2023-02-18T11:28:38;10.20;99.90
7378;DHT22;3730;50.856;12.776;2023-02-18T11:31:05;10.10;99.90
7378;DHT22;3730;50.856;12.776;2023-02-18T11:33:46;10.40;99.90
7378;DHT22;3730;50.856;12.776;2023-02-18T11:36:21;10.20;99.90
7378;DHT22;3730;50.856;12.776;2023-02-18T11:39:22;10.20;99.90
7378;DHT22;3730;50.856;12.776;2023-02-18T11:42:15;10.00;99.90
7378;DHT22;3730;50.856;12.776;2023-02-18T11:44:57;10.00;99.90
7378;DHT22;3730;50.856;12.776;2023-02-18T11:52:41;9.80;99.90
7378;DHT22;3730;50.856;12.776;2023-02-18T11:55:17;9.80;99.90
7378;DHT22;3730;50.856;12.776;2023-02-18T11:58:01;9.80;99.90
7378;DHT22;3730;50.856;12.776;2023-02-18T12:00:49;10.10;99.90
7378;DHT22;3730;50.856;12.776;2023-02-18T12:03:43;9.80;99.90
7378;DHT22;3730;50.856;12.776;2023-02-18T12:06:15;9.60;99.90
7378;DHT22;3730;50.856;12.776;2023-02-18T12:08:55;9.70;99.90
7378;DHT22;3730;50.856;12.776;2023-02-18T12:11:35;9.70;99.90
7378;DHT22;3730;50.856;12.776;2023-02-18T12:14:07;9.70;99.90
7378;DHT22;3730;50.856;12.776;2023-02-18T12:16:56;9.50;99.90
7378;DHT22;3730;50.856;12.776;2023-02-18T12:19:42;9.70;99.90
7378;DHT22;3730;50.856;12.776;2023-02-18T12:22:27;9.60;99.90
7378;DHT22;3730;50.856;12.776;2023-02-18T12:44:55;9.50;99.90
7378;DHT22;3730;50.856;12.776;2023-02-18T12:53:41;9.50;99.90
7378;DHT22;3730;50.856;12.776;2023-02-18T12:58:35;9.50;99.90
7378;DHT22;3730;50.856;12.776;2023-02-18T13:04:34;9.20;99.90
7378;DHT22;3730;50.856;12.776;2023-02-18T13:09:53;9.40;99.90
7378;DHT22;3730;50.856;12.776;2023-02-18T13:12:41;9.70;99.90
7378;DHT22;3730;50.856;12.776;2023-02-18T13:15:35;9.50;99.90
7378;DHT22;3730;50.856;12.776;2023-02-18T13:18:04;9.70;99.90
7378;DHT22;3730;50.856;12.776;2023-02-18T13:21:02;9.60;99.90
7378;DHT22;3730;50.856;12.776;2023-02-18T13:23:54;9.60;99.90
7378;DHT22;3730;50.856;12.776;2023-02-18T13:26:21;9.50;99.90
7378;DHT22;3730;50.856;12.776;2023-02-18T13:31:41;9.50;99.90
7378;DHT22;3730;50.856;12.776;2023-02-18T13:34:30;9.50;99.90
7378;DHT22;3730;50.856;12.776;2023-02-18T13:39:55;9.50;99.90
7378;DHT22;3730;50.856;12.776;2023-02-18T13:47:38;9.60;99.90
7378;DHT22;3730;50.856;12.776;2023-02-18T13:52:48;9.40;99.90
7378;DHT22;3730;50.856;12.776;2023-02-18T13:55:23;9.40;99.90
7378;DHT22;3730;50.856;12.776;2023-02-18T13:57:53;9.50;99.90
7378;DHT22;3730;50.856;12.776;2023-02-18T14:00:23;9.70;99.90
7378;DHT22;3730;50.856;12.776;2023-02-18T14:02:57;9.60;99.90
7378;DHT22;3730;50.856;12.776;2023-02-18T14:05:24;9.50;99.90
7378;DHT22;3730;50.856;12.776;2023-02-18T14:08:28;9.40;99.90
7378;DHT22;3730;50.856;12.776;2023-02-18T14:17:12;9.50;99.90
7378;DHT22;3730;50.856;12.776;2023-02-18T14:19:39;9.50;99.90
7378;DHT22;3730;50.856;12.776;2023-02-18T14:24:56;9.60;99.90
7378;DHT22;3730;50.856;12.776;2023-02-18T14:27:25;9.50;99.90
7378;DHT22;3730;50.856;12.776;2023-02-18T14:29:51;9.70;99.90
7378;DHT22;3730;50.856;12.776;2023-02-18T14:32:18;9.60;99.90
7378;DHT22;3730;50.856;12.776;2023-02-18T14:35:49;9.60;99.90
7378;DHT22;3730;50.856;12.776;2023-02-18T14:43:46;9.40;99.90
7378;DHT22;3730;50.856;12.776;2023-02-18T14:51:26;9.50;99.90
7378;DHT22;3730;50.856;12.776;2023-02-18T14:53:53;9.70;99.90
7378;DHT22;3730;50.856;12.776;2023-02-18T14:56:20;9.50;99.90
7378;DHT22;3730;50.856;12.776;2023-02-18T14:58:48;9.60;99.90
7378;DHT22;3730;50.856;12.776;2023-02-18T15:01:22;9.60;99.90
7378;DHT22;3730;50.856;12.776;2023-02-18T15:03:49;9.60;99.90
7378;DHT22;3730;50.856;12.776;2023-02-18T15:06:34;9.70;99.90
7378;DHT22;3730;50.856;12.776;2023-02-18T15:09:27;9.70;99.90
7378;DHT22;3730;50.856;12.776;2023-02-18T15:12:01;9.60;99.90
7378;DHT22;3730;50.856;12.776;2023-02-18T15:14:32;9.60;99.90
7378;DHT22;3730;50.856;12.776;2023-02-18T15:16:59;9.30;99.90
7378;DHT22;3730;50.856;12.776;2023-02-18T15:19:27;9.70;99.90
7378;DHT22;3730;50.856;12.776;2023-02-18T15:21:56;9.60;99.90
7378;DHT22;3730;50.856;12.776;2023-02-18T15:24:31;9.60;99.90
7378;DHT22;3730;50.856;12.776;2023-02-18T15:27:01;9.50;99.90
7378;DHT22;3730;50.856;12.776;2023-02-18T15:29:33;9.70;99.90
7378;DHT22;3730;50.856;12.776;2023-02-18T15:31:59;9.60;99.90
7378;DHT22;3730;50.856;12.776;2023-02-18T15:34:37;9.50;99.90
7378;DHT22;3730;50.856;12.776;2023-02-18T15:37:06;9.60;99.90
7378;DHT22;3730;50.856;12.776;2023-02-18T15:39:33;9.70;99.90
7378;DHT22;3730;50.856;12.776;2023-02-18T15:42:02;9.40;99.90
7378;DHT22;3730;50.856;12.776;2023-02-18T15:44:32;9.80;99.90
7378;DHT22;3730;50.856;12.776;2023-02-18T15:47:07;9.50;99.90
7378;DHT22;3730;50.856;12.776;2023-02-18T15:49:35;9.70;99.90
7378;DHT22;3730;50.856;12.776;2023-02-18T15:52:02;9.60;99.90
7378;DHT22;3730;50.856;12.776;2023-02-18T15:54:28;9.50;99.90
7378;DHT22;3730;50.856;12.776;2023-02-18T15:56:59;9.60;99.90
7378;DHT22;3730;50.856;12.776;2023-02-18T15:59:27;9.80;99.90
7378;DHT22;3730;50.856;12.776;2023-02-18T16:04:32;9.50;99.90
7378;DHT22;3730;50.856;12.776;2023-02-18T16:07:02;10.00;99.90
7378;DHT22;3730;50.856;12.776;2023-02-18T16:09:32;9.50;99.90
7378;DHT22;3730;50.856;12.776;2023-02-18T16:12:00;9.50;99.90
7378;DHT22;3730;50.856;12.776;2023-02-18T16:14:34;9.40;99.90
7378;DHT22;3730;50.856;12.776;2023-02-18T16:17:25;9.40;99.90
7378;DHT22;3730;50.856;12.776;2023-02-18T16:20:13;9.40;99.90
7378;DHT22;3730;50.856;12.776;2023-02-18T16:22:50;9.50;99.90
7378;DHT22;3730;50.856;12.776;2023-02-18T16:25:23;9.60;99.90
7378;DHT22;3730;50.856;12.776;2023-02-18T16:28:16;9.40;99.90
7378;DHT22;3730;50.856;12.776;2023-02-18T16:30:46;9.20;99.90
7378;DHT22;3730;50.856;12.776;2023-02-18T16:33:13;9.40;99.90
7378;DHT22;3730;50.856;12.776;2023-02-18T16:35:39;9.10;99.90
7378;DHT22;3730;50.856;12.776;2023-02-18T16:38:05;9.50;99.90
7378;DHT22;3730;50.856;12.776;2023-02-18T16:40:36;9.50;99.90
7378;DHT22;3730;50.856;12.776;2023-02-18T16:43:16;9.30;99.90
7378;DHT22;3730;50.856;12.776;2023-02-18T16:45:44;9.20;99.90
7378;DHT22;3730;50.856;12.776;2023-02-18T16:48:20;9.40;99.90
7378;DHT22;3730;50.856;12.776;2023-02-18T16:50:48;9.30;99.90
7378;DHT22;3730;50.856;12.776;2023-02-18T16:55:40;9.20;99.90
7378;DHT22;3730;50.856;12.776;2023-02-18T16:58:06;9.20;99.90
7378;DHT22;3730;50.856;12.776;2023-02-18T17:00:32;9.30;99.90
7378;DHT22;3730;50.856;12.776;2023-02-18T17:02:58;9.20;99.90
7378;DHT22;3730;50.856;12.776;2023-02-18T17:05:30;9.10;99.90
7378;DHT22;3730;50.856;12.776;2023-02-18T17:10:26;9.20;99.90
7378;DHT22;3730;50.856;12.776;2023-02-18T17:12:52;9.10;99.90
7378;DHT22;3730;50.856;12.776;2023-02-18T17:15:27;9.00;99.90
7378;DHT22;3730;50.856;12.776;2023-02-18T17:17:54;8.90;99.90
7378;DHT22;3730;50.856;12.776;2023-02-18T17:20:20;9.00;99.90
7378;DHT22;3730;50.856;12.776;2023-02-18T17:22:46;9.10;99.90
7378;DHT22;3730;50.856;12.776;2023-02-18T17:25:27;9.00;99.90
7378;DHT22;3730;50.856;12.776;2023-02-18T17:27:55;9.20;99.90
7378;DHT22;3730;50.856;12.776;2023-02-18T17:32:47;9.20;99.90
7378;DHT22;3730;50.856;12.776;2023-02-18T17:35:19;8.90;99.90
7378;DHT22;3730;50.856;12.776;2023-02-18T17:37:45;8.70;99.90
7378;DHT22;3730;50.856;12.776;2023-02-18T17:40:23;9.00;99.90
